地図

経路データ

SID SEASON NUMBER BASIN SUBBASIN NAME ISO_TIME NATURE LAT LON WMO_WIND WMO_PRES WMO_AGENCY TRACK_TYPE DIST2LAND LANDFALL IFLAG USA_AGENCY USA_ATCF_ID USA_LAT USA_LON USA_RECORD USA_STATUS USA_WIND USA_PRES USA_SSHS USA_R34_NE USA_R34_SE USA_R34_SW USA_R34_NW USA_R50_NE USA_R50_SE USA_R50_SW USA_R50_NW USA_R64_NE USA_R64_SE USA_R64_SW USA_R64_NW USA_POCI USA_ROCI USA_RMW USA_EYE TOKYO_LAT TOKYO_LON TOKYO_GRADE TOKYO_WIND TOKYO_PRES TOKYO_R50_DIR TOKYO_R50_LONG TOKYO_R50_SHORT TOKYO_R30_DIR TOKYO_R30_LONG TOKYO_R30_SHORT TOKYO_LAND CMA_LAT CMA_LON CMA_CAT CMA_WIND CMA_PRES HKO_LAT HKO_LON HKO_CAT HKO_WIND HKO_PRES NEWDELHI_LAT NEWDELHI_LON NEWDELHI_GRADE NEWDELHI_WIND NEWDELHI_PRES NEWDELHI_CI NEWDELHI_DP NEWDELHI_POCI REUNION_LAT REUNION_LON REUNION_TYPE REUNION_WIND REUNION_PRES REUNION_TNUM REUNION_CI REUNION_RMW REUNION_R34_NE REUNION_R34_SE REUNION_R34_SW REUNION_R34_NW REUNION_R50_NE REUNION_R50_SE REUNION_R50_SW REUNION_R50_NW REUNION_R64_NE REUNION_R64_SE REUNION_R64_SW REUNION_R64_NW BOM_LAT BOM_LON BOM_TYPE BOM_WIND BOM_PRES BOM_TNUM BOM_CI BOM_RMW BOM_R34_NE BOM_R34_SE BOM_R34_SW BOM_R34_NW BOM_R50_NE BOM_R50_SE BOM_R50_SW BOM_R50_NW BOM_R64_NE BOM_R64_SE BOM_R64_SW BOM_R64_NW BOM_ROCI BOM_POCI BOM_EYE BOM_POS_METHOD BOM_PRES_METHOD NADI_LAT NADI_LON NADI_CAT NADI_WIND NADI_PRES WELLINGTON_LAT WELLINGTON_LON WELLINGTON_WIND WELLINGTON_PRES DS824_LAT DS824_LON DS824_STAGE DS824_WIND DS824_PRES TD9636_LAT TD9636_LON TD9636_STAGE TD9636_WIND TD9636_PRES TD9635_LAT TD9635_LON TD9635_WIND TD9635_PRES TD9635_ROCI NEUMANN_LAT NEUMANN_LON NEUMANN_CLASS NEUMANN_WIND NEUMANN_PRES MLC_LAT MLC_LON MLC_CLASS MLC_WIND MLC_PRES USA_GUST BOM_GUST BOM_GUST_PER REUNION_GUST REUNION_GUST_PER USA_SEAHGT USA_SEARAD_NE USA_SEARAD_SE USA_SEARAD_SW USA_SEARAD_NW STORM_SPEED STORM_DIR
1943274N24299 1943 68 NA NA NOT_NAMED 1943-10-01 06:00:00 TS 24.0000 -60.7000 60 hurdat_atl main 806 806 O_____________ hurdat_atl AL081943 24.0000 -60.7000 TS 60 0 23 330
1943274N24299 1943 68 NA NA NOT_NAMED 1943-10-01 09:00:00 TS 25.0006 -61.3429 main 861 861 P_____________ AL081943 25.0006 -61.3429 TS 60 0 23 329
1943274N24299 1943 68 NA NA NOT_NAMED 1943-10-01 12:00:00 TS 26.0000 -62.0000 60 hurdat_atl main 926 926 O_____________ hurdat_atl AL081943 26.0000 -62.0000 TS 60 0 23 329
1943274N24299 1943 68 NA NA NOT_NAMED 1943-10-01 15:00:00 TS 26.9995 -62.6790 main 1006 1006 P_____________ AL081943 26.9995 -62.6790 TS 60 0 24 328
1943274N24299 1943 68 NA NA NOT_NAMED 1943-10-01 18:00:00 TS 28.0000 -63.4000 60 hurdat_atl main 1096 1096 O_____________ hurdat_atl AL081943 28.0000 -63.4000 TS 60 0 24 326
1943274N24299 1943 68 NA NA NOT_NAMED 1943-10-01 21:00:00 TS 28.9998 -64.1861 main 1193 1178 P_____________ AL081943 28.9998 -64.1861 TS 57 0 24 325
1943274N24299 1943 68 NA NA NOT_NAMED 1943-10-02 00:00:00 TS 30.0000 -65.0000 55 hurdat_atl main 1171 1051 O_____________ hurdat_atl AL081943 30.0000 -65.0000 TS 55 0 25 324
1943274N24299 1943 68 NA NA NOT_NAMED 1943-10-02 03:00:00 TS 30.9778 -65.8528 main 1037 927 P_____________ AL081943 30.9778 -65.8528 TS 52 0 24 326
1943274N24299 1943 68 NA NA NOT_NAMED 1943-10-02 06:00:00 TS 32.0000 -66.6000 50 hurdat_atl main 922 829 O_____________ hurdat_atl AL081943 32.0000 -66.6000 TS 50 0 24 332
1943274N24299 1943 68 NA NA NOT_NAMED 1943-10-02 09:00:00 TS 33.0971 -67.1699 main 816 748 P_____________ AL081943 33.0971 -67.1699 TS 47 0 24 342
1943274N24299 1943 68 NA NA NOT_NAMED 1943-10-02 12:00:00 TS 34.3000 -67.5000 45 hurdat_atl main 745 703 O_____________ hurdat_atl AL081943 34.3000 -67.5000 TS 45 0 25 350
1943274N24299 1943 68 NA NA NOT_NAMED 1943-10-02 15:00:00 TS 35.5966 -67.6764 main 702 575 P_____________ AL081943 35.5966 -67.6764 TS 45 0 27 0
1943274N24299 1943 68 NA NA NOT_NAMED 1943-10-02 18:00:00 TS 37.0000 -67.5000 45 hurdat_atl main 565 446 O_____________ hurdat_atl AL081943 37.0000 -67.5000 TS 45 0 29 11
1943274N24299 1943 68 NA NA NOT_NAMED 1943-10-02 21:00:00 TS 38.4384 -66.9689 main 446 383 P_____________ AL081943 38.4384 -66.9689 TS 45 0 32 21
1943274N24299 1943 68 NA NA NOT_NAMED 1943-10-03 00:00:00 TS 40.0000 -66.0000 45 hurdat_atl main 384 226 O_____________ hurdat_atl AL081943 40.0000 -66.0000 TS 45 0 37 29
1943274N24299 1943 68 NA NA NOT_NAMED 1943-10-03 03:00:00 TS 41.6371 -64.6753 main 216 118 P_____________ AL081943 41.6371 -64.6753 TS 45 0 42 33
1943274N24299 1943 68 NA NA NOT_NAMED 1943-10-03 06:00:00 ET 43.5000 -63.0000 45 hurdat_atl main 110 0 O_____________ hurdat_atl AL081943 43.5000 -63.0000 EX 45 -4 48 33
1943274N24299 1943 68 NA NA NOT_NAMED 1943-10-03 09:00:00 ET 45.6407 -61.0366 main 11 0 P_____________ AL081943 45.6407 -61.0366 EX 45 -4 53 32
1943274N24299 1943 68 NA NA NOT_NAMED 1943-10-03 12:00:00 ET 48.0000 -59.0000 45 hurdat_atl main 0 0 O_____________ hurdat_atl AL081943 48.0000 -59.0000 EX 45 -4 55 28
1943274N24299 1943 68 NA NA NOT_NAMED 1943-10-03 15:00:00 ET 50.4749 -57.2027 main 0 0 P_____________ AL081943 50.4749 -57.2027 EX 42 -4 55 24
1943274N24299 1943 68 NA NA NOT_NAMED 1943-10-03 18:00:00 ET 53.0000 -55.5000 40 hurdat_atl main 22 O_____________ hurdat_atl AL081943 53.0000 -55.5000 EX 40 -4 54 22

IBTrACS Databaseについて

本データベースは、米国NOAAが公開する1842年以降の世界の熱帯低気圧のベストトラックデータアーカイブInternational Best Track Archive for Climate Stewardship (IBTrACS)を、ウェブで閲覧しやすい形式に変換したものです。

最終更新日:2021-10-08